createdAt,value
2019-02-08T00:00:45.199Z,2.80
2019-02-08T00:04:07.922Z,2.80
2019-02-08T00:07:30.672Z,2.80
2019-02-08T00:10:53.467Z,2.80
2019-02-08T00:14:16.301Z,2.80
2019-02-08T00:17:38.773Z,2.80
2019-02-08T00:21:02.217Z,2.80
2019-02-08T00:24:24.925Z,2.90
2019-02-08T00:27:47.654Z,2.80
2019-02-08T00:31:10.497Z,2.80
2019-02-08T00:34:32.625Z,2.80
2019-02-08T00:37:55.513Z,2.80
2019-02-08T00:41:18.013Z,2.80
2019-02-08T00:44:40.726Z,2.70
2019-02-08T00:48:03.045Z,2.70
2019-02-08T00:51:25.913Z,2.70
2019-02-08T00:54:48.357Z,2.70
2019-02-08T00:58:11.337Z,2.60
2019-02-08T01:01:34.145Z,2.60
2019-02-08T01:04:56.434Z,2.60
2019-02-08T01:08:19.090Z,2.60
2019-02-08T01:11:41.749Z,2.60
2019-02-08T01:15:06.159Z,2.50
2019-02-08T01:18:28.942Z,2.50
2019-02-08T01:21:51.599Z,2.40
2019-02-08T01:25:17.185Z,2.30
2019-02-08T01:28:39.490Z,2.30
2019-02-08T01:32:02.233Z,2.20
2019-02-08T01:35:25.824Z,2.10
2019-02-08T01:38:48.285Z,2.10
2019-02-08T01:42:10.548Z,2.10
2019-02-08T01:45:38.820Z,2.10
2019-02-08T01:49:01.282Z,2.10
2019-02-08T01:52:23.438Z,2.10
2019-02-08T01:55:45.934Z,2.20
2019-02-08T01:59:08.407Z,2.20
2019-02-08T02:02:31.076Z,2.30
2019-02-08T02:05:53.800Z,2.40
2019-02-08T02:09:16.263Z,2.40
2019-02-08T02:12:38.962Z,2.40
2019-02-08T02:16:01.960Z,2.30
2019-02-08T02:19:24.494Z,2.30
2019-02-08T02:22:47.414Z,2.30
2019-02-08T02:26:09.993Z,2.30
2019-02-08T02:29:32.633Z,2.20
2019-02-08T02:32:55.272Z,2.10
2019-02-08T02:36:17.495Z,2.10
2019-02-08T02:39:40.350Z,2.00
2019-02-08T02:43:03.038Z,2.00
2019-02-08T02:46:25.743Z,2.00
2019-02-08T02:49:48.177Z,2.00
2019-02-08T02:53:10.643Z,2.00
2019-02-08T02:56:33.044Z,2.00
2019-02-08T02:59:55.370Z,2.10
2019-02-08T03:03:18.085Z,2.00
2019-02-08T03:06:40.354Z,2.00
2019-02-08T03:10:03.222Z,2.00
2019-02-08T03:13:25.581Z,1.90
2019-02-08T03:16:48.269Z,1.90
2019-02-08T03:20:14.367Z,1.90
2019-02-08T03:23:36.847Z,1.90
2019-02-08T03:26:59.240Z,2.00
2019-02-08T03:30:27.458Z,2.10
2019-02-08T03:33:49.861Z,2.10
2019-02-08T03:37:11.914Z,2.10
2019-02-08T03:40:34.788Z,2.10
2019-02-08T03:43:57.110Z,2.00
2019-02-08T03:47:19.760Z,2.10
2019-02-08T03:50:42.047Z,2.10
2019-02-08T03:54:04.528Z,2.00
2019-02-08T03:57:27.093Z,2.00
2019-02-08T04:00:59.635Z,2.00
2019-02-08T04:04:22.141Z,2.00
2019-02-08T04:07:44.368Z,1.90
2019-02-08T04:11:07.571Z,1.90
2019-02-08T04:14:30.235Z,2.00
2019-02-08T04:17:53.168Z,2.00
2019-02-08T04:21:15.883Z,2.10
2019-02-08T04:24:38.262Z,2.00
2019-02-08T04:28:00.478Z,2.10
2019-02-08T04:31:23.044Z,2.10
2019-02-08T04:34:45.657Z,2.10
2019-02-08T04:38:08.862Z,2.20
2019-02-08T04:41:31.264Z,2.20
2019-02-08T04:44:53.672Z,2.20
2019-02-08T04:48:15.705Z,2.30
2019-02-08T04:51:38.165Z,2.30
2019-02-08T04:55:00.464Z,2.30
2019-02-08T04:58:22.997Z,2.30
2019-02-08T05:01:45.149Z,2.30
2019-02-08T05:05:08.072Z,2.30
2019-02-08T05:08:30.551Z,2.30
2019-02-08T05:11:52.669Z,2.20
2019-02-08T05:15:15.241Z,2.20
2019-02-08T05:18:37.877Z,2.20
2019-02-08T05:22:00.695Z,2.10
2019-02-08T05:25:23.340Z,2.10
2019-02-08T05:28:45.745Z,2.10
2019-02-08T05:32:08.288Z,2.20
2019-02-08T05:35:30.733Z,2.20
2019-02-08T05:38:53.147Z,2.20
2019-02-08T05:42:15.783Z,2.30
2019-02-08T05:45:38.355Z,2.20
2019-02-08T05:49:00.617Z,2.30
2019-02-08T05:52:22.895Z,2.30
2019-02-08T05:55:45.362Z,2.30
2019-02-08T05:59:07.817Z,2.30
2019-02-08T06:02:30.331Z,2.30
2019-02-08T06:05:53.218Z,2.30
2019-02-08T06:09:15.974Z,2.20
2019-02-08T06:12:38.408Z,2.20
2019-02-08T06:16:00.692Z,2.30
2019-02-08T06:19:23.464Z,2.30
2019-02-08T06:22:46.189Z,2.20
2019-02-08T06:26:08.993Z,2.30
2019-02-08T06:29:31.511Z,2.20
2019-02-08T06:32:54.001Z,2.30
2019-02-08T06:36:16.179Z,2.20
2019-02-08T06:39:38.678Z,2.30
2019-02-08T06:43:01.563Z,2.30
2019-02-08T06:46:24.039Z,2.30
2019-02-08T06:49:46.194Z,2.30
2019-02-08T06:53:09.056Z,2.30
2019-02-08T06:56:49.700Z,2.30
2019-02-08T07:00:34.119Z,2.50
2019-02-08T07:04:14.872Z,2.60
2019-02-08T07:07:45.518Z,2.60
2019-02-08T07:11:26.502Z,2.60
2019-02-08T07:15:20.127Z,2.60
2019-02-08T07:19:00.613Z,2.70
2019-02-08T07:22:31.484Z,2.70
2019-02-08T07:26:28.674Z,2.60
2019-02-08T07:30:28.774Z,2.70
2019-02-08T07:34:07.364Z,2.70
2019-02-08T07:37:38.751Z,2.90
2019-02-08T07:41:24.900Z,2.90
2019-02-08T07:45:09.067Z,3.00
2019-02-08T07:48:44.549Z,3.20
2019-02-08T07:52:20.969Z,3.40
2019-02-08T07:56:06.055Z,3.80
2019-02-08T07:59:54.238Z,4.30
2019-02-08T08:03:38.800Z,4.40
2019-02-08T08:07:29.888Z,4.80
2019-02-08T08:11:17.849Z,5.00
2019-02-08T08:15:05.393Z,4.80
2019-02-08T08:18:56.116Z,4.50
2019-02-08T08:22:34.609Z,4.40
2019-02-08T08:26:19.610Z,4.60
2019-02-08T08:29:50.804Z,4.80
2019-02-08T08:33:24.434Z,5.00
2019-02-08T08:37:14.572Z,5.20
2019-02-08T08:41:11.960Z,5.50
2019-02-08T08:45:19.391Z,5.80
2019-02-08T08:49:27.720Z,5.70
2019-02-08T08:53:17.682Z,5.90
2019-02-08T08:57:11.543Z,6.30
2019-02-08T09:01:13.047Z,6.50
2019-02-08T09:05:15.934Z,6.70
2019-02-08T09:09:02.223Z,6.60
2019-02-08T09:13:21.299Z,6.70
2019-02-08T09:17:23.706Z,7.00
2019-02-08T09:21:14.886Z,7.10
2019-02-08T09:25:49.987Z,7.10
2019-02-08T09:29:40.559Z,6.90
2019-02-08T09:33:38.166Z,6.90
2019-02-08T09:37:47.047Z,7.00
2019-02-08T09:41:46.600Z,7.20
2019-02-08T09:45:47.488Z,7.00
2019-02-08T09:49:46.681Z,7.10
2019-02-08T09:53:52.524Z,7.10
2019-02-08T09:57:52.947Z,7.00
2019-02-08T10:01:51.669Z,7.00
2019-02-08T10:05:51.988Z,7.00
2019-02-08T10:10:04.783Z,6.90
2019-02-08T10:14:01.270Z,7.10
2019-02-08T10:18:00.180Z,7.20
2019-02-08T10:21:59.971Z,7.30
2019-02-08T10:25:57.314Z,7.40
2019-02-08T10:29:58.016Z,7.40
2019-02-08T10:33:58.001Z,7.50
2019-02-08T10:38:06.226Z,7.40
2019-02-08T10:41:54.913Z,7.30
2019-02-08T10:45:50.065Z,7.40
2019-02-08T10:49:39.454Z,7.60
2019-02-08T10:53:16.900Z,7.60
2019-02-08T10:57:26.398Z,7.90
2019-02-08T11:01:26.807Z,8.10
2019-02-08T11:05:21.950Z,7.80
2019-02-08T11:09:34.876Z,8.10
2019-02-08T11:13:25.446Z,8.10
2019-02-08T11:17:35.690Z,8.20
2019-02-08T11:20:58.098Z,8.00
2019-02-08T11:24:22.678Z,8.10
2019-02-08T11:27:44.634Z,8.00
2019-02-08T11:31:07.252Z,8.00
2019-02-08T11:34:29.744Z,8.10
2019-02-08T11:37:51.921Z,8.30
2019-02-08T11:41:14.489Z,8.40
2019-02-08T11:44:36.612Z,8.50
2019-02-08T11:47:59.064Z,8.70
2019-02-08T11:51:21.541Z,8.80
2019-02-08T11:54:44.018Z,8.60
2019-02-08T11:58:06.590Z,8.60
2019-02-08T12:01:32.762Z,8.60
2019-02-08T12:04:55.206Z,8.70
2019-02-08T12:08:17.957Z,8.50
2019-02-08T12:11:40.729Z,8.40
2019-02-08T12:15:03.547Z,8.40
2019-02-08T12:18:25.988Z,8.50
2019-02-08T12:21:48.461Z,8.50
2019-02-08T12:25:11.284Z,8.50
2019-02-08T12:28:33.886Z,8.60
2019-02-08T12:31:56.068Z,8.60
2019-02-08T12:35:18.630Z,8.50
2019-02-08T12:38:40.808Z,8.50
2019-02-08T12:42:02.954Z,8.50
2019-02-08T12:45:26.341Z,8.60
2019-02-08T12:48:49.190Z,8.60
2019-02-08T12:52:12.014Z,8.70
2019-02-08T12:55:34.557Z,8.70
2019-02-08T12:58:57.479Z,8.70
2019-02-08T13:02:20.200Z,8.80
2019-02-08T13:05:42.889Z,8.90
2019-02-08T13:09:11.013Z,8.80
2019-02-08T13:12:33.632Z,8.70
2019-02-08T13:15:56.141Z,8.60
2019-02-08T13:19:18.931Z,8.60
2019-02-08T13:22:41.652Z,8.60
2019-02-08T13:26:04.106Z,8.60
2019-02-08T13:29:26.693Z,8.60
2019-02-08T13:32:49.605Z,8.50
2019-02-08T13:36:14.714Z,8.50
2019-02-08T13:39:37.370Z,8.50
2019-02-08T13:42:59.895Z,8.60
2019-02-08T13:46:22.476Z,8.70
2019-02-08T13:49:45.126Z,8.80
2019-02-08T13:53:07.918Z,8.70
2019-02-08T13:56:30.627Z,8.60
2019-02-08T13:59:53.515Z,8.50
2019-02-08T14:03:16.113Z,8.50
2019-02-08T14:07:52.832Z,8.30
2019-02-08T14:11:15.629Z,8.40
2019-02-08T14:14:38.306Z,8.30
2019-02-08T14:18:00.623Z,8.30
2019-02-08T14:21:23.344Z,8.30
2019-02-08T14:24:46.031Z,8.30
2019-02-08T14:28:08.454Z,8.30
2019-02-08T14:31:31.120Z,8.20
2019-02-08T14:34:53.617Z,8.10
2019-02-08T14:38:19.551Z,8.10
2019-02-08T14:41:41.915Z,8.00
2019-02-08T14:45:07.066Z,8.00
2019-02-08T14:48:29.277Z,8.00
2019-02-08T14:51:51.727Z,7.90
2019-02-08T14:55:14.169Z,7.90
2019-02-08T14:58:36.635Z,8.00
2019-02-08T15:01:59.138Z,8.00
2019-02-08T15:05:21.426Z,7.90
2019-02-08T15:08:44.228Z,7.90
2019-02-08T15:12:06.381Z,7.90
2019-02-08T15:15:28.965Z,8.00
2019-02-08T15:18:51.111Z,8.00
2019-02-08T15:22:13.837Z,8.00
2019-02-08T15:25:36.366Z,8.10
2019-02-08T15:28:58.903Z,8.00
2019-02-08T15:32:21.081Z,8.00
2019-02-08T15:35:43.557Z,8.00
2019-02-08T15:39:10.187Z,8.00
2019-02-08T15:42:32.824Z,8.00
2019-02-08T15:45:58.072Z,8.00
2019-02-08T15:49:20.886Z,7.90
2019-02-08T15:52:43.499Z,8.00
2019-02-08T15:56:15.056Z,8.00
2019-02-08T15:59:37.052Z,7.90
2019-02-08T16:02:59.747Z,7.80
2019-02-08T16:06:21.882Z,7.70
2019-02-08T16:09:44.618Z,7.70
2019-02-08T16:13:07.238Z,7.60
2019-02-08T16:16:29.744Z,7.60
2019-02-08T16:22:21.758Z,7.60
2019-02-08T16:25:44.534Z,7.60
2019-02-08T16:29:06.996Z,7.60
2019-02-08T16:32:29.472Z,7.50
2019-02-08T16:35:51.858Z,7.50
2019-02-08T16:39:14.043Z,7.50
2019-02-08T16:42:36.433Z,7.50
2019-02-08T16:45:58.855Z,7.50
2019-02-08T16:49:21.511Z,7.50
2019-02-08T16:52:43.694Z,7.50
2019-02-08T16:56:06.133Z,7.50
2019-02-08T16:59:28.655Z,7.40
2019-02-08T17:03:36.510Z,7.50
2019-02-08T17:06:59.537Z,7.40
2019-02-08T17:10:22.064Z,7.40
2019-02-08T17:13:44.568Z,7.30
2019-02-08T17:17:07.477Z,7.30
2019-02-08T17:20:33.093Z,7.20
2019-02-08T17:23:55.290Z,7.20
2019-02-08T17:27:17.962Z,7.10
2019-02-08T17:30:40.837Z,7.10
2019-02-08T17:34:03.706Z,7.10
2019-02-08T17:37:27.606Z,7.00
2019-02-08T17:40:50.393Z,7.10
2019-02-08T17:44:13.009Z,7.10
2019-02-08T17:47:35.869Z,7.10
2019-02-08T17:50:58.397Z,7.00
2019-02-08T17:54:25.718Z,7.00
2019-02-08T17:57:45.602Z,7.00
2019-02-08T18:01:08.603Z,7.00
2019-02-08T18:04:31.286Z,7.00
2019-02-08T18:07:54.122Z,6.90
2019-02-08T18:11:16.922Z,6.90
2019-02-08T18:14:39.605Z,6.80
2019-02-08T18:18:02.345Z,6.70
2019-02-08T18:21:24.458Z,6.70
2019-02-08T18:24:46.971Z,6.70
2019-02-08T18:28:11.161Z,6.60
2019-02-08T18:31:33.260Z,6.50
2019-02-08T18:34:55.370Z,6.40
2019-02-08T18:38:17.767Z,6.40
2019-02-08T18:41:40.213Z,6.30
2019-02-08T18:45:02.673Z,6.20
2019-02-08T18:48:25.567Z,6.10
2019-02-08T18:51:48.370Z,6.00
2019-02-08T18:55:10.992Z,6.00
2019-02-08T18:58:33.786Z,6.00
2019-02-08T19:01:56.234Z,5.90
2019-02-08T19:05:18.978Z,5.90
2019-02-08T19:08:41.637Z,5.90
2019-02-08T19:12:03.929Z,5.90
2019-02-08T19:15:26.338Z,5.80
2019-02-08T19:18:49.191Z,5.80
2019-02-08T19:22:11.780Z,5.70
